Time;durP1;ratioP1;P1;durP2;ratioP2;P2;SDS_P1;SDS_P2;PMS_P1;PMS_P2;Temp;Humidity;BMP_temperature;BMP_pressure;BME280_temperature;BME280_humidity;BME280_pressure;Samples;Min_cycle;Max_cycle;Signal;HPM_P1;HPM_P2
2023/09/09 00:02:07;;;;;;;22.20;16.17;;;;;;;19.96;100.00;101511.66;5047699;28;20013;-53
2023/09/09 00:04:33;;;;;;;19.05;16.08;;;;;;;19.93;99.34;101511.97;5045421;28;20039;-52
2023/09/09 00:07:02;;;;;;;18.50;16.55;;;;;;;19.86;99.62;101509.09;5046659;28;20021;-51
2023/09/09 00:09:28;;;;;;;18.75;15.70;;;;;;;19.85;99.63;101512.81;5046389;28;20063;-51
2023/09/09 00:11:53;;;;;;;16.98;15.13;;;;;;;19.83;99.54;101504.00;5043824;28;20056;-52
2023/09/09 00:14:18;;;;;;;17.83;15.95;;;;;;;19.80;99.82;101508.88;5053448;28;20090;-52
2023/09/09 00:16:44;;;;;;;17.02;15.05;;;;;;;19.80;100.00;101507.06;5052830;28;20021;-51
2023/09/09 00:19:09;;;;;;;18.80;16.10;;;;;;;19.77;100.00;101510.06;5047940;28;20562;-51
2023/09/09 00:21:34;;;;;;;19.35;16.73;;;;;;;19.69;100.00;101505.44;5049375;28;20272;-52
2023/09/09 00:24:00;;;;;;;18.50;15.75;;;;;;;19.66;100.00;101500.38;5040267;28;20025;-51
2023/09/09 00:26:27;;;;;;;17.33;15.50;;;;;;;19.68;100.00;101498.34;5045553;28;20498;-51
2023/09/09 00:28:53;;;;;;;17.38;15.57;;;;;;;19.65;100.00;101504.09;5045685;28;20025;-51
2023/09/09 00:31:18;;;;;;;18.80;15.25;;;;;;;19.61;100.00;101502.72;5052593;28;20021;-51
2023/09/09 00:33:44;;;;;;;18.88;15.48;;;;;;;19.61;100.00;101491.94;5047345;28;20116;-51
2023/09/09 00:36:09;;;;;;;19.98;15.35;;;;;;;19.53;100.00;101498.13;5046304;28;20116;-51
2023/09/09 00:38:34;;;;;;;17.35;15.57;;;;;;;19.52;100.00;101495.59;5045890;28;20040;-51
2023/09/09 00:41:17;;;;;;;19.65;16.92;;;;;;;19.51;100.00;101496.59;5036377;28;20040;-51
2023/09/09 00:43:43;;;;;;;18.25;16.30;;;;;;;19.51;100.00;101496.59;5040314;28;20072;-51
2023/09/09 00:46:11;;;;;;;19.52;17.42;;;;;;;19.45;100.00;101500.78;5046071;28;20083;-52
2023/09/09 00:48:37;;;;;;;20.23;18.20;;;;;;;19.42;100.00;101493.03;5043520;28;20037;-51
2023/09/09 00:51:04;;;;;;;21.42;19.23;;;;;;;19.34;100.00;101496.50;5043822;28;20183;-51
2023/09/09 00:53:30;;;;;;;20.40;18.30;;;;;;;19.39;100.00;101496.88;5043452;28;20091;-52
2023/09/09 00:55:55;;;;;;;19.92;17.83;;;;;;;19.38;100.00;101491.63;5046014;28;20106;-51
2023/09/09 00:58:22;;;;;;;20.13;17.80;;;;;;;19.35;100.00;101497.34;5041799;28;20526;-52
2023/09/09 01:00:48;;;;;;;21.65;17.40;;;;;;;19.32;100.00;101492.31;5047923;28;20017;-52
2023/09/09 01:03:13;;;;;;;19.45;17.45;;;;;;;19.31;100.00;101496.81;5048513;28;20028;-52
2023/09/09 01:05:38;;;;;;;20.27;17.85;;;;;;;19.30;100.00;101497.84;5051369;28;20460;-51
2023/09/09 01:08:04;;;;;;;20.40;18.15;;;;;;;19.23;100.00;101496.75;5045691;28;20038;-51
2023/09/09 01:10:30;;;;;;;20.67;18.63;;;;;;;19.21;100.00;101496.09;5049366;28;20386;-51
2023/09/09 01:12:55;;;;;;;22.90;18.10;;;;;;;19.19;100.00;101493.56;5042692;28;20037;-51
2023/09/09 01:15:21;;;;;;;21.20;17.75;;;;;;;19.17;100.00;101494.72;5041621;28;20112;-53
2023/09/09 01:17:48;;;;;;;18.60;16.65;;;;;;;19.17;100.00;101500.13;5045410;28;20098;-52
2023/09/09 01:20:17;;;;;;;19.50;17.30;;;;;;;19.11;100.00;101490.81;5042726;28;20479;-53
2023/09/09 01:22:44;;;;;;;20.20;18.00;;;;;;;19.07;100.00;101500.22;5042568;28;20032;-52
2023/09/09 01:25:11;;;;;;;20.50;18.17;;;;;;;19.08;100.00;101495.66;5051113;28;20017;-52
2023/09/09 01:27:37;;;;;;;21.40;18.08;;;;;;;19.06;100.00;101492.28;5047501;28;20498;-51
2023/09/09 01:30:03;;;;;;;21.30;19.10;;;;;;;19.01;100.00;101485.50;5042286;28;20108;-52
2023/09/09 01:32:29;;;;;;;23.25;20.77;;;;;;;19.03;100.00;101490.75;5049909;28;20136;-52
2023/09/09 01:34:55;;;;;;;21.50;19.20;;;;;;;18.99;100.00;101479.44;5052151;28;20403;-52
2023/09/09 01:37:21;;;;;;;23.42;21.10;;;;;;;18.96;100.00;101487.84;5044523;28;20029;-51
2023/09/09 01:39:47;;;;;;;21.45;19.25;;;;;;;18.96;100.00;101490.53;5044748;28;20037;-52
2023/09/09 01:42:12;;;;;;;22.17;19.88;;;;;;;18.94;100.00;101489.84;5046590;28;20029;-51
2023/09/09 01:44:39;;;;;;;21.60;19.38;;;;;;;18.89;100.00;101496.72;5046575;28;20548;-52
2023/09/09 01:47:05;;;;;;;22.33;19.92;;;;;;;18.85;100.00;101488.06;5049358;28;20033;-51
2023/09/09 01:49:30;;;;;;;21.83;19.52;;;;;;;18.85;100.00;101490.78;5044184;28;20049;-52
2023/09/09 01:51:55;;;;;;;22.10;19.88;;;;;;;18.84;100.00;101497.16;5047735;28;20402;-52
2023/09/09 01:54:21;;;;;;;21.35;19.27;;;;;;;18.79;100.00;101494.91;5055354;28;20474;-52
2023/09/09 01:56:46;;;;;;;20.80;18.73;;;;;;;18.77;100.00;101494.22;5049561;28;20056;-52
2023/09/09 01:59:11;;;;;;;20.33;18.33;;;;;;;18.74;100.00;101499.91;5049649;28;20468;-51
2023/09/09 02:01:37;;;;;;;23.75;21.27;;;;;;;18.72;100.00;101495.69;5050515;28;20032;-51
2023/09/09 02:04:02;;;;;;;23.35;21.05;;;;;;;18.73;100.00;101483.91;5050828;28;20024;-53
2023/09/09 02:06:28;;;;;;;27.20;24.60;;;;;;;18.73;100.00;101487.44;5051335;28;20037;-54
2023/09/09 02:08:53;;;;;;;30.10;27.00;;;;;;;18.69;100.00;101483.41;5045580;28;20075;-52
2023/09/09 02:11:19;;;;;;;28.83;25.92;;;;;;;18.65;100.00;101484.69;5054363;28;20017;-52
2023/09/09 02:13:44;;;;;;;29.48;26.27;;;;;;;18.62;100.00;101483.16;5050907;28;20075;-52
2023/09/09 02:16:09;;;;;;;27.52;24.83;;;;;;;18.63;100.00;101484.84;5047391;28;20025;-52
2023/09/09 02:18:37;;;;;;;28.15;25.35;;;;;;;18.62;100.00;101491.25;5048102;28;20033;-53
2023/09/09 02:21:03;;;;;;;26.83;24.02;;;;;;;18.59;100.00;101486.16;5044108;28;20029;-52
2023/09/09 02:23:28;;;;;;;24.25;21.75;;;;;;;18.58;100.00;101489.84;5044938;28;20120;-51
2023/09/09 02:25:54;;;;;;;24.15;21.65;;;;;;;18.56;100.00;101489.16;5043842;28;20029;-53
2023/09/09 02:28:20;;;;;;;27.90;22.23;;;;;;;18.53;100.00;101494.84;5046957;28;20474;-52
2023/09/09 02:30:45;;;;;;;24.98;22.40;;;;;;;18.50;100.00;101489.75;5048412;28;20542;-52
2023/09/09 02:33:10;;;;;;;27.60;24.73;;;;;;;18.46;100.00;101491.91;5051034;28;20477;-52
2023/09/09 02:35:41;;;;;;;29.85;26.88;;;;;;;18.37;100.00;101482.09;5049574;28;20028;-51
2023/09/09 02:38:06;;;;;;;30.98;27.88;;;;;;;18.38;100.00;101491.84;5049377;28;20400;-53
2023/09/09 02:40:31;;;;;;;33.00;29.65;;;;;;;18.38;100.00;101493.69;5058116;28;20017;-52
2023/09/09 02:42:57;;;;;;;32.83;29.35;;;;;;;18.34;100.00;101489.63;5055164;28;20050;-51
2023/09/09 02:45:22;;;;;;;31.10;27.98;;;;;;;18.35;100.00;101489.44;5053566;28;20043;-51
2023/09/09 02:47:47;;;;;;;32.97;29.63;;;;;;;18.31;100.00;101494.28;5052736;28;20107;-51
2023/09/09 02:50:13;;;;;;;31.60;28.35;;;;;;;18.32;100.00;101497.84;5046092;28;20351;-52
2023/09/09 02:52:38;;;;;;;31.83;28.65;;;;;;;18.31;100.00;101491.59;5043400;28;20516;-51
2023/09/09 02:55:04;;;;;;;31.52;28.23;;;;;;;18.30;100.00;101489.94;5056466;28;20170;-52
2023/09/09 02:57:29;;;;;;;32.90;29.52;;;;;;;18.27;100.00;101500.16;5051062;28;20135;-51
2023/09/09 02:59:54;;;;;;;35.55;31.92;;;;;;;18.22;100.00;101492.53;5049492;28;20056;-51
2023/09/09 03:02:20;;;;;;;34.17;30.98;;;;;;;18.16;100.00;101482.38;5049244;28;20082;-51
2023/09/09 03:04:46;;;;;;;34.22;30.60;;;;;;;18.19;100.00;101484.78;5047986;28;20075;-51
2023/09/09 03:07:11;;;;;;;32.95;29.65;;;;;;;18.16;100.00;101486.91;5048697;28;20390;-51
2023/09/09 03:09:37;;;;;;;33.80;30.23;;;;;;;18.14;100.00;101488.94;5051237;28;20111;-51
2023/09/09 03:12:03;;;;;;;35.22;31.52;;;;;;;18.10;100.00;101488.34;5048097;28;20486;-51
2023/09/09 03:14:29;;;;;;;35.95;32.22;;;;;;;18.08;100.00;101487.66;5054490;28;20052;-51
2023/09/09 03:16:54;;;;;;;32.58;29.38;;;;;;;18.10;100.00;101489.22;5049942;28;20059;-53
2023/09/09 03:19:20;;;;;;;36.63;32.65;;;;;;;18.03;100.00;101488.09;5047219;28;20929;-51
2023/09/09 03:21:46;;;;;;;35.92;32.22;;;;;;;18.01;100.00;101491.97;5051797;28;20029;-51
2023/09/09 03:24:11;;;;;;;39.47;34.20;;;;;;;17.97;100.00;101496.78;5051271;28;20084;-52
2023/09/09 03:26:36;;;;;;;35.78;31.90;;;;;;;18.01;100.00;101489.28;5046879;28;20030;-51
2023/09/09 03:29:02;;;;;;;37.33;33.72;;;;;;;17.93;100.00;101498.06;5049887;28;20056;-51
2023/09/09 03:31:27;;;;;;;38.63;34.72;;;;;;;17.93;100.00;101490.00;5046545;28;20013;-53
2023/09/09 03:33:52;;;;;;;34.83;31.33;;;;;;;17.98;100.00;101492.25;5046142;28;20108;-53
2023/09/09 03:36:18;;;;;;;37.58;33.75;;;;;;;17.92;100.00;101489.19;5053106;28;20055;-51
2023/09/09 03:38:43;;;;;;;38.60;34.78;;;;;;;17.91;100.00;101492.84;5046154;28;20029;-51
2023/09/09 03:41:08;;;;;;;38.10;34.08;;;;;;;17.93;100.00;101490.84;5054145;28;20029;-51
2023/09/09 03:43:35;;;;;;;39.13;34.95;;;;;;;17.91;100.00;101492.84;5046583;28;20049;-54
2023/09/09 03:46:01;;;;;;;39.80;35.78;;;;;;;17.91;100.00;101494.69;5049967;28;20544;-52
2023/09/09 03:48:27;;;;;;;44.63;40.10;;;;;;;17.87;100.00;101490.59;5046837;28;20128;-51
2023/09/09 03:51:02;;;;;;;46.15;40.97;;;;;;;17.88;100.00;101498.53;5049413;28;20518;-51
2023/09/09 03:53:28;;;;;;;46.42;41.75;;;;;;;17.84;100.00;101494.41;5055006;28;20130;-53
2023/09/09 03:55:54;;;;;;;50.45;45.22;;;;;;;17.83;100.00;101495.41;5054348;28;20029;-52
2023/09/09 03:58:20;;;;;;;49.78;44.65;;;;;;;17.84;100.00;101496.28;5048525;28;20111;-51
2023/09/09 04:00:46;;;;;;;48.30;43.50;;;;;;;17.84;100.00;101499.78;5048415;28;20043;-52
2023/09/09 04:03:12;;;;;;;52.65;47.25;;;;;;;17.79;100.00;101496.72;5045234;28;20029;-52
2023/09/09 04:05:38;;;;;;;51.28;45.83;;;;;;;17.80;100.00;101500.22;5050581;28;20471;-53
2023/09/09 04:08:08;;;;;;;51.72;46.55;;;;;;;17.77;100.00;101506.78;5051631;28;20022;-52
2023/09/09 04:10:34;;;;;;;52.80;47.25;;;;;;;17.76;100.00;101503.22;5053092;28;20025;-51
2023/09/09 04:12:59;;;;;;;55.00;49.38;;;;;;;17.74;100.00;101502.53;5052378;28;20036;-52
2023/09/09 04:15:24;;;;;;;55.67;49.83;;;;;;;17.74;100.00;101504.38;5048660;28;20035;-51
2023/09/09 04:17:50;;;;;;;56.63;50.80;;;;;;;17.71;100.00;101497.44;5045270;28;20112;-52
2023/09/09 04:20:15;;;;;;;55.60;49.83;;;;;;;17.69;100.00;101501.28;5050220;28;20021;-54
2023/09/09 04:22:40;;;;;;;54.78;49.17;;;;;;;17.68;100.00;101496.91;5049706;28;20029;-54
2023/09/09 04:25:06;;;;;;;60.35;53.78;;;;;;;17.61;100.00;101501.19;5052078;28;20032;-52
2023/09/09 04:27:31;;;;;;;57.53;51.45;;;;;;;17.61;100.00;101498.50;5049592;28;20473;-52
2023/09/09 04:29:57;;;;;;;54.22;48.75;;;;;;;17.61;100.00;101499.34;5050804;28;20033;-52
2023/09/09 04:32:23;;;;;;;52.83;47.20;;;;;;;17.60;100.00;101508.38;5043331;28;20039;-52
2023/09/09 04:34:48;;;;;;;55.47;49.55;;;;;;;17.52;100.00;101498.38;5050048;28;20033;-52
2023/09/09 04:37:14;;;;;;;56.45;50.65;;;;;;;17.51;100.00;101507.41;5048321;28;20017;-51
2023/09/09 04:39:39;;;;;;;62.03;55.25;;;;;;;17.48;100.00;101510.41;5052023;28;20033;-49
2023/09/09 04:42:05;;;;;;;67.93;60.53;;;;;;;17.44;100.00;101511.69;5047049;28;20112;-51
2023/09/09 04:44:30;;;;;;;69.95;62.75;;;;;;;17.43;100.00;101515.38;5053374;28;20049;-50
2023/09/09 04:46:55;;;;;;;69.53;62.40;;;;;;;17.41;100.00;101509.31;5052438;28;20049;-49
2023/09/09 04:49:22;;;;;;;69.32;62.20;;;;;;;17.40;100.00;101504.91;5043744;28;20030;-49
2023/09/09 04:51:48;;;;;;;65.78;58.97;;;;;;;17.38;100.00;101514.97;5045691;28;20025;-49
2023/09/09 04:54:13;;;;;;;64.43;57.65;;;;;;;17.37;100.00;101515.97;5045433;28;20521;-52
2023/09/09 04:56:39;;;;;;;66.93;60.03;;;;;;;17.31;100.00;101513.84;5045896;28;20479;-50
2023/09/09 04:59:04;;;;;;;66.13;58.95;;;;;;;17.29;100.00;101508.63;5045773;28;20021;-50
2023/09/09 05:01:30;;;;;;;66.97;59.58;;;;;;;17.31;100.00;101505.81;5045146;28;20025;-51
2023/09/09 05:03:55;;;;;;;77.75;65.00;;;;;;;17.28;100.00;101511.47;5046187;28;20486;-53
2023/09/09 05:06:20;;;;;;;84.10;70.15;;;;;;;17.24;100.00;101516.28;5044262;28;20040;-52
2023/09/09 05:08:46;;;;;;;81.68;68.68;;;;;;;17.23;100.00;101514.56;5047735;28;20056;-50
2023/09/09 05:11:11;;;;;;;75.18;64.80;;;;;;;17.24;100.00;101515.44;5047169;28;20053;-51
2023/09/09 05:13:36;;;;;;;71.97;63.55;;;;;;;17.25;100.00;101517.13;5040620;28;20482;-54
2023/09/09 05:16:02;;;;;;;73.30;64.20;;;;;;;17.23;100.00;101514.56;5044520;28;20034;-51
2023/09/09 05:18:28;;;;;;;73.22;61.83;;;;;;;17.21;100.00;101521.94;5048554;28;20040;-51
2023/09/09 05:20:53;;;;;;;74.28;61.65;;;;;;;17.18;100.00;101522.22;5048283;28;20017;-51
2023/09/09 05:23:18;;;;;;;73.13;62.33;;;;;;;17.15;100.00;101514.44;5051737;28;20083;-50
2023/09/09 05:25:44;;;;;;;68.45;60.97;;;;;;;17.15;100.00;101518.00;5050061;28;20140;-51
2023/09/09 05:28:10;;;;;;;71.35;63.75;;;;;;;17.14;100.00;101521.66;5039288;28;20117;-52
2023/09/09 05:30:40;;;;;;;75.10;66.93;;;;;;;17.13;100.00;101525.31;5043588;28;20043;-51
2023/09/09 05:33:05;;;;;;;75.78;67.82;;;;;;;17.13;100.00;101525.31;5047242;28;20036;-53
2023/09/09 05:35:30;;;;;;;78.13;69.60;;;;;;;17.17;100.00;101531.28;5049075;28;20036;-51
2023/09/09 05:37:56;;;;;;;78.45;70.50;;;;;;;17.17;100.00;101526.75;5046487;28;20040;-51
2023/09/09 05:40:21;;;;;;;80.63;72.07;;;;;;;17.17;100.00;101532.13;5043131;28;20546;-51
2023/09/09 05:42:46;;;;;;;103.18;79.25;;;;;;;17.17;100.00;101539.31;5047229;28;20075;-52
2023/09/09 05:45:12;;;;;;;84.25;74.22;;;;;;;17.16;100.00;101535.78;5040657;28;20502;-51
2023/09/09 05:47:37;;;;;;;147.52;77.20;;;;;;;17.14;100.00;101535.09;5048713;28;20068;-51
2023/09/09 05:50:04;;;;;;;76.72;69.10;;;;;;;17.14;100.00;101532.41;5037724;28;21514;-51
2023/09/09 05:52:29;;;;;;;88.00;74.65;;;;;;;17.16;100.00;101541.16;5041211;28;20061;-51
2023/09/09 05:54:55;;;;;;;82.97;75.28;;;;;;;17.18;100.00;101535.63;5039939;28;20482;-51
2023/09/09 05:57:21;;;;;;;78.57;70.88;;;;;;;17.19;100.00;101543.53;5041519;28;20031;-53
2023/09/09 05:59:46;;;;;;;77.30;69.97;;;;;;;17.18;100.00;101543.69;5041193;28;20037;-51
2023/09/09 06:02:11;;;;;;;76.45;68.43;;;;;;;17.18;100.00;101554.41;5045794;28;20029;-52
2023/09/09 06:04:37;;;;;;;80.88;73.30;;;;;;;17.19;100.00;101548.91;5048547;28;20168;-53
2023/09/09 06:07:02;;;;;;;84.88;75.70;;;;;;;17.20;100.00;101550.63;5039882;28;20064;-50
2023/09/09 06:09:27;;;;;;;77.68;70.68;;;;;;;17.21;100.00;101551.47;5038393;28;20029;-52
2023/09/09 06:11:53;;;;;;;82.78;74.85;;;;;;;17.23;100.00;101551.31;5038853;28;20029;-52
2023/09/09 06:14:18;;;;;;;126.72;73.50;;;;;;;17.15;100.00;101542.16;5037261;28;20049;-51
2023/09/09 06:16:43;;;;;;;78.38;71.32;;;;;;;17.25;100.00;101552.84;5036198;28;20071;-51
2023/09/09 06:19:09;;;;;;;73.32;66.38;;;;;;;17.30;100.00;101557.78;5051359;28;20024;-51
2023/09/09 06:21:34;;;;;;;78.88;71.00;;;;;;;17.27;100.00;101553.56;5045728;28;20483;-51
2023/09/09 06:24:00;;;;;;;74.50;67.65;;;;;;;17.34;100.00;101559.22;5048403;28;20147;-52
2023/09/09 06:26:30;;;;;;;73.38;66.68;;;;;;;17.37;100.00;101564.31;5052096;28;20387;-52
2023/09/09 06:28:55;;;;;;;70.75;64.35;;;;;;;17.36;100.00;101551.84;5055753;28;20040;-51
2023/09/09 06:31:21;;;;;;;76.28;69.22;;;;;;;17.42;100.00;101564.72;5048976;28;20037;-51
2023/09/09 06:33:46;;;;;;;72.40;65.95;;;;;;;17.46;100.00;101565.25;5039653;28;20049;-51
2023/09/09 06:36:12;;;;;;;71.30;65.10;;;;;;;17.47;100.00;101567.81;5047067;28;20021;-51
2023/09/09 06:38:37;;;;;;;67.15;61.13;;;;;;;17.52;100.00;101573.59;5040988;28;20539;-50
2023/09/09 06:41:02;;;;;;;65.78;59.97;;;;;;;17.59;100.00;101578.38;5043948;28;20483;-51
2023/09/09 06:43:27;;;;;;;67.55;61.70;;;;;;;17.61;100.00;101571.84;5036489;28;20495;-50
2023/09/09 06:45:53;;;;;;;71.55;65.38;;;;;;;17.67;100.00;101573.09;5038579;28;20029;-51
2023/09/09 06:48:18;;;;;;;67.60;61.75;;;;;;;17.70;100.00;101576.38;5054877;28;20024;-50
2023/09/09 06:50:47;;;;;;;67.70;61.90;;;;;;;17.74;100.00;101583.13;5043506;28;20450;-50
2023/09/09 06:53:13;;;;;;;70.82;64.72;;;;;;;17.76;100.00;101578.44;5043101;28;20033;-50
2023/09/09 06:55:41;;;;;;;69.47;63.47;;;;;;;17.80;100.00;101589.75;5049010;28;20032;-50
2023/09/09 06:58:06;;;;;;;69.78;63.63;;;;;;;17.84;100.00;101588.47;5048418;28;20021;-50
2023/09/09 07:00:32;;;;;;;72.20;65.80;;;;;;;17.93;100.00;101590.28;5039879;28;20498;-50
2023/09/09 07:02:58;;;;;;;71.05;64.75;;;;;;;17.99;100.00;101590.72;5043928;28;20479;-50
2023/09/09 07:05:24;;;;;;;72.32;65.57;;;;;;;18.06;100.00;101600.72;5050938;28;20124;-49
2023/09/09 07:07:49;;;;;;;74.15;67.03;;;;;;;18.14;100.00;101596.47;5047893;28;20427;-50
2023/09/09 07:10:15;;;;;;;76.82;69.72;;;;;;;18.21;100.00;101595.69;5046710;28;20506;-50
2023/09/09 07:12:42;;;;;;;80.07;72.65;;;;;;;18.25;100.00;101594.41;5042383;28;20039;-50
2023/09/09 07:15:08;;;;;;;82.57;74.50;;;;;;;18.29;100.00;101595.78;5041353;28;20022;-49
2023/09/09 07:17:34;;;;;;;82.38;74.38;;;;;;;18.45;100.00;101591.59;5051171;28;20040;-49
2023/09/09 07:19:59;;;;;;;79.25;71.68;;;;;;;18.66;100.00;101602.09;5051587;28;20024;-50
2023/09/09 07:22:25;;;;;;;79.35;71.78;;;;;;;18.83;100.00;101598.59;5047569;28;20018;-50
2023/09/09 07:24:50;;;;;;;79.53;72.03;;;;;;;18.97;100.00;101602.59;5050478;28;20033;-49
2023/09/09 07:27:16;;;;;;;83.32;75.35;;;;;;;19.16;100.00;101609.66;5048502;28;20032;-49
2023/09/09 07:29:41;;;;;;;84.82;76.60;;;;;;;19.36;100.00;101602.25;5048632;28;20061;-49
2023/09/09 07:32:06;;;;;;;81.43;73.55;;;;;;;19.46;100.00;101602.16;5047659;28;20060;-51
2023/09/09 07:34:32;;;;;;;83.97;75.55;;;;;;;19.63;100.00;101610.34;5052010;28;20025;-50
2023/09/09 07:36:58;;;;;;;81.40;73.40;;;;;;;19.90;100.00;101607.53;5045539;28;20486;-51
2023/09/09 07:39:26;;;;;;;82.55;74.00;;;;;;;20.13;100.00;101610.50;5050376;28;20025;-51
2023/09/09 07:41:52;;;;;;;86.03;77.00;;;;;;;20.27;100.00;101614.44;5045524;28;20032;-49
2023/09/09 07:44:17;;;;;;;89.00;79.80;;;;;;;20.39;100.00;101611.44;5046888;28;20091;-51
2023/09/09 07:46:43;;;;;;;88.20;79.57;;;;;;;20.60;100.00;101611.84;5046638;28;20629;-50
2023/09/09 07:49:08;;;;;;;82.35;74.25;;;;;;;20.82;100.00;101621.19;5046791;28;20059;-51
2023/09/09 07:51:33;;;;;;;86.43;77.97;;;;;;;20.98;98.51;101616.81;5047343;28;20387;-53
2023/09/09 07:53:59;;;;;;;87.07;78.70;;;;;;;21.19;97.62;101617.16;5048454;28;20390;-51
2023/09/09 07:56:24;;;;;;;83.18;74.70;;;;;;;21.47;96.68;101618.66;5045739;28;20116;-54
2023/09/09 07:58:50;;;;;;;84.25;75.97;;;;;;;21.62;95.24;101627.81;5049034;28;20073;-50
2023/09/09 08:01:15;;;;;;;81.50;73.50;;;;;;;21.93;95.03;101617.09;5048842;28;20034;-51
2023/09/09 08:03:41;;;;;;;81.57;73.60;;;;;;;22.09;95.16;101627.00;5044612;28;20074;-51
2023/09/09 08:06:06;;;;;;;84.00;75.63;;;;;;;22.28;94.27;101623.09;5046284;28;20072;-52
2023/09/09 08:08:32;;;;;;;82.85;74.90;;;;;;;22.46;92.83;101620.09;5044931;28;20437;-51
2023/09/09 08:10:58;;;;;;;82.50;74.43;;;;;;;22.70;92.24;101627.25;5041707;28;20034;-53
2023/09/09 08:13:25;;;;;;;81.43;73.53;;;;;;;22.90;90.64;101624.94;5043974;28;20031;-51
2023/09/09 08:15:50;;;;;;;80.45;72.50;;;;;;;23.12;90.03;101630.56;5037816;28;20036;-52
2023/09/09 08:18:16;;;;;;;81.57;73.47;;;;;;;23.27;89.15;101626.03;5046259;28;20021;-51
2023/09/09 08:20:41;;;;;;;79.05;71.60;;;;;;;23.53;88.60;101635.63;5050703;28;20124;-53
2023/09/09 08:23:07;;;;;;;82.82;74.60;;;;;;;23.63;88.47;101636.22;5039063;28;20033;-51
2023/09/09 08:25:33;;;;;;;80.88;72.47;;;;;;;23.79;86.86;101646.03;5045832;28;20047;-51
2023/09/09 08:28:01;;;;;;;81.63;73.45;;;;;;;23.97;85.62;101634.03;5040288;28;20282;-52
2023/09/09 08:30:27;;;;;;;78.43;70.10;;;;;;;24.12;84.80;101634.84;5049117;28;20021;-51
2023/09/09 08:32:52;;;;;;;74.47;66.82;;;;;;;24.38;84.37;101642.50;5044681;28;20039;-52
2023/09/09 08:35:17;;;;;;;72.60;65.40;;;;;;;24.59;82.76;101643.63;5041933;28;20028;-51
2023/09/09 08:37:43;;;;;;;75.47;67.83;;;;;;;24.84;82.67;101635.94;5041914;28;20040;-51
2023/09/09 08:40:09;;;;;;;76.63;68.87;;;;;;;24.96;81.09;101641.72;5048851;28;20282;-52
2023/09/09 08:42:50;;;;;;;74.35;67.10;;;;;;;25.06;81.03;101647.69;5040661;28;20290;-53
2023/09/09 08:45:47;;;;;;;69.40;62.38;;;;;;;25.45;82.72;101645.56;5042510;28;20049;-51
2023/09/09 08:48:18;;;;;;;74.07;67.17;;;;;;;25.77;79.86;101646.00;5056547;28;20049;-51
2023/09/09 08:50:45;;;;;;;82.03;74.05;;;;;;;25.87;77.51;101657.34;5042326;28;20292;-54
2023/09/09 08:53:14;;;;;;;83.03;74.88;;;;;;;26.13;75.59;101647.69;5043649;28;20052;-51
2023/09/09 08:55:40;;;;;;;76.75;69.30;;;;;;;26.25;76.28;101646.09;5042264;28;20025;-53
2023/09/09 08:58:06;;;;;;;73.90;66.75;;;;;;;26.48;74.38;101643.06;5018655;28;20041;-52
2023/09/09 09:00:33;;;;;;;70.07;63.20;;;;;;;26.60;72.93;101651.47;5041841;28;20017;-51
2023/09/09 09:03:01;;;;;;;67.03;60.60;;;;;;;26.65;73.64;101654.44;5043991;28;20017;-52
2023/09/09 09:05:29;;;;;;;61.10;54.43;;;;;;;26.87;70.81;101651.56;5052237;28;20017;-52
2023/09/09 09:07:54;;;;;;;56.42;50.97;;;;;;;27.09;71.14;101655.78;5043940;28;20037;-52
2023/09/09 09:10:20;;;;;;;51.42;46.20;;;;;;;27.18;70.25;101653.72;5050054;28;20032;-52
2023/09/09 09:12:46;;;;;;;41.55;37.25;;;;;;;27.59;68.47;101660.88;5041889;28;20033;-53
2023/09/09 09:15:12;;;;;;;43.17;38.30;;;;;;;27.85;67.99;101664.63;5043017;28;20036;-54
2023/09/09 09:17:40;;;;;;;40.90;35.50;;;;;;;27.71;66.75;101652.88;5041712;28;20021;-54
2023/09/09 09:20:10;;;;;;;39.67;35.58;;;;;;;27.99;65.67;101665.47;5042234;28;20112;-55
2023/09/09 09:22:37;;;;;;;39.90;34.05;;;;;;;28.36;65.59;101663.03;5036616;28;20506;-53
2023/09/09 09:25:03;;;;;;;38.22;34.15;;;;;;;28.48;63.79;101657.72;5047208;28;20541;-51
2023/09/09 09:27:31;;;;;;;34.13;30.48;;;;;;;28.72;64.18;101650.72;5036043;28;20345;-52
2023/09/09 09:29:56;;;;;;;19.30;17.23;;;;;;;28.99;61.82;101654.09;5040277;28;20493;-52
2023/09/09 09:32:21;;;;;;;12.68;11.40;;;;;;;28.97;60.13;101656.22;5043191;28;20028;-54
2023/09/09 09:34:50;;;;;;;15.47;13.87;;;;;;;29.25;58.89;101649.56;5043976;28;20589;-51
2023/09/09 09:37:15;;;;;;;16.10;13.88;;;;;;;29.32;58.96;101645.69;5041723;28;20315;-51
2023/09/09 09:39:43;;;;;;;18.30;16.17;;;;;;;29.45;58.03;101647.47;5042066;28;20432;-54
2023/09/09 09:42:11;;;;;;;16.30;14.70;;;;;;;29.46;57.35;101640.09;5038298;28;20032;-53
2023/09/09 09:44:36;;;;;;;18.40;16.50;;;;;;;29.85;56.24;101641.63;5044291;28;20044;-52
2023/09/09 09:47:07;;;;;;;15.88;13.88;;;;;;;30.11;57.27;101647.03;5040408;28;20402;-52
2023/09/09 09:49:48;;;;;;;16.05;14.45;;;;;;;30.34;57.73;101644.44;5040424;28;20033;-52
2023/09/09 09:52:23;;;;;;;13.25;10.45;;;;;;;30.53;55.64;101631.56;5045181;28;20037;-54
2023/09/09 09:54:51;;;;;;;15.32;12.25;;;;;;;30.47;54.39;101634.41;5044022;28;20503;-51
2023/09/09 09:57:17;;;;;;;13.13;11.80;;;;;;;30.55;51.89;101636.84;5049896;28;20025;-50
2023/09/09 09:59:43;;;;;;;10.73;9.38;;;;;;;30.73;52.33;101641.44;5033687;28;20029;-52
2023/09/09 10:02:09;;;;;;;10.57;9.48;;;;;;;30.85;49.23;101642.28;5040231;28;20059;-53
2023/09/09 10:04:41;;;;;;;8.50;7.57;;;;;;;31.19;50.84;101637.16;5049869;28;20036;-51
2023/09/09 10:07:17;;;;;;;8.43;7.30;;;;;;;31.18;49.95;101632.75;5032630;28;20108;-50
2023/09/09 10:09:53;;;;;;;6.53;5.85;;;;;;;31.27;48.68;101638.72;5037591;28;20128;-50
2023/09/09 10:12:26;;;;;;;8.00;6.70;;;;;;;31.43;47.30;101637.19;5048237;28;20029;-50
2023/09/09 10:14:52;;;;;;;8.02;6.32;;;;;;;31.73;46.55;101639.84;5040831;28;20040;-51
2023/09/09 10:17:21;;;;;;;7.60;6.90;;;;;;;31.61;47.69;101634.34;5036699;28;20017;-50
2023/09/09 10:19:49;;;;;;;;;;;;;;;32.18;52.25;101639.19;5043909;28;20017;-50
2023/09/09 10:22:15;;;;;;;8.15;5.85;;;;;;;31.98;43.86;101633.25;5051904;28;20271;-52
2023/09/09 10:24:42;;;;;;;6.07;5.32;;;;;;;32.05;42.77;101633.94;5044816;28;20029;-50
2023/09/09 10:27:08;;;;;;;6.57;5.93;;;;;;;32.08;43.28;101633.47;5046111;28;20041;-51
2023/09/09 10:29:37;;;;;;;7.38;6.68;;;;;;;32.06;44.51;101635.63;5049738;28;20548;-51
2023/09/09 10:32:03;;;;;;;6.13;5.53;;;;;;;32.36;44.44;101626.31;5047064;28;20105;-50
2023/09/09 10:34:30;;;;;;;7.18;5.40;;;;;;;32.30;42.89;101639.16;5051879;28;20031;-50
2023/09/09 10:36:59;;;;;;;6.75;5.10;;;;;;;32.33;43.80;101632.34;5041350;28;20029;-51
2023/09/09 10:39:24;;;;;;;7.28;6.22;;;;;;;32.21;42.57;101629.59;5044402;28;20030;-51
2023/09/09 10:41:50;;;;;;;7.13;5.35;;;;;;;32.33;41.25;101626.84;5035790;28;20051;-51
2023/09/09 10:44:16;;;;;;;7.45;5.43;;;;;;;32.82;42.30;101621.72;5042370;28;20455;-51
2023/09/09 10:46:41;;;;;;;6.90;5.40;;;;;;;33.14;43.23;101627.50;5037761;28;20041;-51
2023/09/09 10:49:07;;;;;;;6.50;5.50;;;;;;;32.92;41.61;101623.81;5042963;28;20090;-53
2023/09/09 10:51:48;;;;;;;5.95;5.45;;;;;;;33.16;43.65;101627.31;5040950;28;20118;-51
2023/09/09 10:54:15;;;;;;;6.10;5.50;;;;;;;33.00;42.70;101618.72;5041003;28;20018;-51
2023/09/09 10:56:51;;;;;;;6.00;5.50;;;;;;;33.15;41.41;101620.94;5042201;28;20033;-50
2023/09/09 10:59:22;;;;;;;5.43;4.20;;;;;;;33.13;37.50;101616.75;5046838;28;20025;-51
2023/09/09 11:02:07;;;;;;;4.63;3.75;;;;;;;33.32;37.20;101618.16;5042867;28;20055;-50